Time;durP1;ratioP1;P1;durP2;ratioP2;P2;SDS_P1;SDS_P2;PMS_P1;PMS_P2;Temp;Humidity;BMP_temperature;BMP_pressure;BME280_temperature;BME280_humidity;BME280_pressure;Samples;Min_cycle;Max_cycle;Signal;HPM_P1;HPM_P2
2024/04/14 00:02:08;;;;;;;9.87;5.27;;;11.60;66.30;;;;;;5371279;26;20505;-62
2024/04/14 00:04:33;;;;;;;7.30;5.30;;;11.60;66.60;;;;;;5378638;26;20307;-61
2024/04/14 00:06:59;;;;;;;6.07;5.07;;;11.60;66.80;;;;;;5370169;26;20281;-61
2024/04/14 00:09:24;;;;;;;7.03;5.50;;;11.50;66.90;;;;;;5368262;26;20464;-61
2024/04/14 00:11:50;;;;;;;8.67;5.43;;;11.50;67.20;;;;;;5370796;26;20222;-61
2024/04/14 00:14:15;;;;;;;11.37;6.30;;;11.50;67.20;;;;;;5372608;26;20222;-61
2024/04/14 00:16:43;;;;;;;7.67;5.97;;;11.40;67.50;;;;;;5368661;26;20293;-62
2024/04/14 00:19:12;;;;;;;9.00;6.00;;;11.50;67.60;;;;;;5371018;26;20268;-62
2024/04/14 00:21:37;;;;;;;9.03;6.27;;;11.50;67.40;;;;;;5369730;26;20468;-61
2024/04/14 00:24:03;;;;;;;8.53;5.70;;;11.50;67.50;;;;;;5364074;26;20452;-62
2024/04/14 00:26:29;;;;;;;12.93;5.50;;;11.50;68.00;;;;;;5368733;26;20264;-62
2024/04/14 00:28:55;;;;;;;8.70;5.70;;;11.50;68.10;;;;;;5367934;26;20459;-61
2024/04/14 00:31:20;;;;;;;10.00;5.90;;;11.40;68.10;;;;;;5371944;26;20241;-62
2024/04/14 00:33:46;;;;;;;6.53;5.17;;;11.40;68.10;;;;;;5364435;26;20325;-62
2024/04/14 00:36:12;;;;;;;9.30;5.70;;;11.40;68.30;;;;;;5365630;26;20627;-62
2024/04/14 00:38:37;;;;;;;11.90;6.30;;;11.30;68.50;;;;;;5369407;26;20751;-62
2024/04/14 00:41:03;;;;;;;6.20;5.60;;;11.30;69.00;;;;;;5368366;26;20273;-66
2024/04/14 00:43:29;;;;;;;16.00;6.57;;;11.30;69.40;;;;;;5370480;26;20712;-62
2024/04/14 00:45:55;;;;;;;7.93;6.17;;;11.20;69.50;;;;;;5369007;26;20227;-62
2024/04/14 00:48:22;;;;;;;10.03;5.93;;;11.20;69.60;;;;;;5370239;26;20692;-62
2024/04/14 00:50:49;;;;;;;9.30;5.90;;;11.20;69.70;;;;;;5375125;26;20218;-61
2024/04/14 00:53:15;;;;;;;8.70;5.60;;;11.20;69.70;;;;;;5400547;26;20516;-62
2024/04/14 00:55:43;;;;;;;7.13;5.43;;;11.10;69.80;;;;;;5366790;26;20563;-62
2024/04/14 00:58:10;;;;;;;8.03;5.20;;;11.10;70.10;;;;;;5371658;26;20507;-62
2024/04/14 01:00:36;;;;;;;6.70;5.57;;;11.10;70.30;;;;;;5363541;26;20475;-62
2024/04/14 01:03:02;;;;;;;7.97;6.03;;;11.00;70.30;;;;;;5371482;26;20436;-61
2024/04/14 01:05:28;;;;;;;7.90;5.50;;;11.00;70.60;;;;;;5372046;26;20547;-61
2024/04/14 01:07:55;;;;;;;7.17;5.30;;;11.00;70.80;;;;;;5373454;26;20510;-61
2024/04/14 01:10:22;;;;;;;8.73;5.87;;;11.00;71.30;;;;;;5372539;26;20800;-62
2024/04/14 01:12:48;;;;;;;10.20;6.40;;;10.90;71.30;;;;;;5378599;26;20897;-62
2024/04/14 01:15:13;;;;;;;6.60;5.90;;;10.90;71.60;;;;;;5374361;26;20460;-62
2024/04/14 01:17:39;;;;;;;9.37;6.93;;;10.80;72.60;;;;;;5372198;26;20229;-60
2024/04/14 01:20:05;;;;;;;7.97;6.33;;;10.80;74.30;;;;;;5364040;26;20222;-60
2024/04/14 01:22:31;;;;;;;9.20;7.00;;;10.80;74.80;;;;;;5374922;26;20222;-61
2024/04/14 01:25:08;;;;;;;9.00;6.57;;;10.80;75.20;;;;;;5370643;26;20882;-61
2024/04/14 01:27:34;;;;;;;13.30;7.20;;;10.70;75.00;;;;;;5373508;26;20646;-61
2024/04/14 01:30:00;;;;;;;15.60;7.80;;;10.70;75.40;;;;;;5372487;26;20994;-62
2024/04/14 01:32:26;;;;;;;17.17;6.63;;;10.70;75.70;;;;;;5375875;26;20561;-68
2024/04/14 01:34:51;;;;;;;13.37;6.80;;;10.70;76.70;;;;;;5397553;26;20213;-62
2024/04/14 01:37:17;;;;;;;8.47;6.17;;;10.70;77.00;;;;;;5398004;26;20308;-62
2024/04/14 01:39:42;;;;;;;13.00;6.90;;;10.60;76.60;;;;;;5385377;26;20343;-61
2024/04/14 01:42:08;;;;;;;9.10;6.20;;;10.60;76.70;;;;;;5367003;26;20816;-62
2024/04/14 01:44:33;;;;;;;12.53;5.87;;;10.60;76.80;;;;;;5380206;26;20577;-62
2024/04/14 01:46:59;;;;;;;12.60;6.83;;;10.60;76.70;;;;;;5382456;26;20230;-62
2024/04/14 01:49:25;;;;;;;7.13;5.83;;;10.60;76.40;;;;;;5397655;26;20218;-62
2024/04/14 01:51:50;;;;;;;10.20;6.10;;;10.50;76.40;;;;;;5377309;26;20312;-62
2024/04/14 01:54:16;;;;;;;7.43;5.90;;;10.50;76.30;;;;;;5362050;26;20233;-60
2024/04/14 01:56:42;;;;;;;8.97;7.07;;;10.50;76.50;;;;;;5370908;26;20237;-61
2024/04/14 01:59:07;;;;;;;8.40;6.07;;;10.40;76.80;;;;;;5374150;26;20335;-61
2024/04/14 02:01:33;;;;;;;6.90;5.83;;;10.40;76.70;;;;;;5373440;26;20226;-62
2024/04/14 02:03:58;;;;;;;9.50;6.63;;;10.30;76.80;;;;;;5374438;26;20213;-60
2024/04/14 02:06:24;;;;;;;11.33;6.30;;;10.30;77.70;;;;;;5365843;26;21042;-61
2024/04/14 02:08:53;;;;;;;9.53;6.03;;;10.30;77.80;;;;;;5356898;26;20322;-62
2024/04/14 02:11:18;;;;;;;12.03;5.77;;;10.20;78.20;;;;;;5368057;26;20222;-62
2024/04/14 02:13:44;;;;;;;10.20;6.50;;;10.20;78.50;;;;;;5362509;26;20472;-62
2024/04/14 02:16:10;;;;;;;11.57;6.07;;;10.20;78.90;;;;;;5368205;26;20264;-62
2024/04/14 02:18:36;;;;;;;19.63;6.57;;;10.10;78.90;;;;;;5366311;26;21102;-62
2024/04/14 02:21:02;;;;;;;7.30;5.90;;;10.10;79.40;;;;;;5373688;26;20242;-62
2024/04/14 02:23:27;;;;;;;8.33;5.90;;;10.10;79.80;;;;;;5376797;26;20268;-61
2024/04/14 02:25:54;;;;;;;9.23;6.40;;;10.00;80.50;;;;;;5363399;26;20469;-61
2024/04/14 02:28:20;;;;;;;8.03;5.43;;;10.00;80.90;;;;;;5373997;26;20848;-61
2024/04/14 02:30:46;;;;;;;11.80;6.87;;;10.00;81.40;;;;;;5369026;26;20684;-61
2024/04/14 02:33:11;;;;;;;9.77;5.70;;;10.00;81.50;;;;;;5375175;26;20755;-62
2024/04/14 02:35:40;;;;;;;10.73;6.70;;;10.00;81.60;;;;;;5369689;26;20230;-62
2024/04/14 02:38:05;;;;;;;7.00;5.97;;;9.90;82.80;;;;;;5372043;26;20595;-62
2024/04/14 02:40:31;;;;;;;11.30;6.03;;;9.90;82.90;;;;;;5367733;26;20464;-61
2024/04/14 02:42:56;;;;;;;8.33;5.67;;;9.90;83.10;;;;;;5371842;26;20289;-62
2024/04/14 02:45:23;;;;;;;7.30;5.40;;;9.80;83.70;;;;;;5379272;26;20222;-61
2024/04/14 02:47:48;;;;;;;7.47;5.87;;;9.80;84.70;;;;;;5363647;26;20284;-60
2024/04/14 02:50:14;;;;;;;14.23;7.30;;;9.80;85.40;;;;;;5369061;26;20452;-61
2024/04/14 02:52:40;;;;;;;16.93;6.60;;;9.80;88.10;;;;;;5372417;26;20796;-61
2024/04/14 02:55:06;;;;;;;20.57;5.90;;;9.80;88.70;;;;;;5368104;26;20240;-61
2024/04/14 02:57:31;;;;;;;9.60;5.63;;;9.80;89.20;;;;;;5372656;26;20225;-61
2024/04/14 02:59:57;;;;;;;7.37;6.10;;;9.80;88.70;;;;;;5365473;26;20242;-61
2024/04/14 03:02:23;;;;;;;7.33;5.63;;;9.80;88.10;;;;;;5368126;26;20343;-62
2024/04/14 03:04:49;;;;;;;9.27;6.47;;;9.70;87.30;;;;;;5378444;26;20312;-62
2024/04/14 03:07:14;;;;;;;21.63;7.30;;;9.70;86.50;;;;;;5394312;26;20452;-63
2024/04/14 03:09:40;;;;;;;6.97;6.27;;;9.60;86.70;;;;;;5388944;26;20233;-61
2024/04/14 03:12:06;;;;;;;8.20;6.30;;;9.60;88.30;;;;;;5395026;26;20221;-62
2024/04/14 03:14:31;;;;;;;8.27;6.37;;;9.60;88.10;;;;;;5386700;26;20708;-61
2024/04/14 03:16:57;;;;;;;7.97;6.07;;;9.60;89.00;;;;;;5372183;26;20724;-64
2024/04/14 03:19:23;;;;;;;8.73;5.90;;;9.50;89.50;;;;;;5365957;26;20227;-61
2024/04/14 03:21:48;;;;;;;11.47;6.00;;;9.50;89.60;;;;;;5357055;26;20235;-61
2024/04/14 03:24:14;;;;;;;8.83;6.87;;;9.50;89.70;;;;;;5370193;26;20654;-62
2024/04/14 03:26:39;;;;;;;10.13;6.57;;;9.50;89.50;;;;;;5368725;26;20273;-60
2024/04/14 03:29:05;;;;;;;8.50;6.30;;;9.40;90.20;;;;;;5373779;26;20270;-61
2024/04/14 03:31:31;;;;;;;9.70;6.80;;;9.40;90.80;;;;;;5369349;26;20221;-61
2024/04/14 03:33:56;;;;;;;11.43;5.83;;;9.40;90.70;;;;;;5371311;26;20245;-61
2024/04/14 03:36:22;;;;;;;8.43;6.07;;;9.40;90.60;;;;;;5369334;26;20245;-62
2024/04/14 03:38:47;;;;;;;8.80;6.00;;;9.30;90.20;;;;;;5365233;26;20943;-62
2024/04/14 03:41:13;;;;;;;8.47;5.40;;;9.30;90.30;;;;;;5368446;26;20241;-61
2024/04/14 03:43:39;;;;;;;10.73;6.60;;;9.30;89.90;;;;;;5367194;26;20703;-60
2024/04/14 03:46:07;;;;;;;7.07;5.87;;;9.30;89.40;;;;;;5367065;26;20268;-60
2024/04/14 03:48:33;;;;;;;9.53;6.43;;;9.20;89.80;;;;;;5370264;26;20230;-61
2024/04/14 03:50:58;;;;;;;14.07;6.50;;;9.20;90.00;;;;;;5371714;26;21109;-60
2024/04/14 03:53:24;;;;;;;7.37;6.03;;;9.20;90.10;;;;;;5369734;26;20229;-61
2024/04/14 03:55:49;;;;;;;12.03;6.50;;;9.10;90.00;;;;;;5371199;26;20268;-61
2024/04/14 03:58:15;;;;;;;10.60;6.60;;;9.10;90.20;;;;;;5367724;26;20229;-61
2024/04/14 04:00:41;;;;;;;10.07;6.77;;;9.10;90.30;;;;;;5372029;26;20331;-61
2024/04/14 04:03:06;;;;;;;7.50;6.17;;;9.10;90.20;;;;;;5372751;26;20774;-61
2024/04/14 04:05:32;;;;;;;8.87;6.73;;;9.00;89.30;;;;;;5370212;26;20237;-61
2024/04/14 04:07:57;;;;;;;8.00;5.70;;;9.00;89.20;;;;;;5366904;26;20351;-62
2024/04/14 04:10:23;;;;;;;11.57;6.97;;;9.00;89.50;;;;;;5371577;26;20226;-61
2024/04/14 04:12:48;;;;;;;10.00;7.10;;;8.90;89.90;;;;;;5373187;26;20292;-60
2024/04/14 04:15:14;;;;;;;9.27;6.40;;;8.90;90.20;;;;;;5373664;26;20226;-60
2024/04/14 04:17:40;;;;;;;8.93;6.40;;;8.90;90.60;;;;;;5370803;26;20723;-60
2024/04/14 04:20:05;;;;;;;8.70;6.20;;;8.90;90.60;;;;;;5361365;26;20277;-60
2024/04/14 04:22:31;;;;;;;9.60;5.70;;;8.90;90.80;;;;;;5368744;26;20222;-60
2024/04/14 04:24:56;;;;;;;17.13;6.30;;;8.90;90.40;;;;;;5366618;26;20221;-61
2024/04/14 04:27:22;;;;;;;8.83;6.03;;;8.90;91.70;;;;;;5366736;26;20276;-60
2024/04/14 04:29:47;;;;;;;12.33;7.07;;;8.80;92.30;;;;;;5357226;26;20352;-59
2024/04/14 04:32:16;;;;;;;7.53;6.50;;;8.80;92.60;;;;;;5370828;26;20226;-61
2024/04/14 04:34:43;;;;;;;12.40;7.43;;;8.80;92.50;;;;;;5361408;26;20286;-62
2024/04/14 04:37:08;;;;;;;8.60;6.70;;;8.80;92.90;;;;;;5369088;26;20468;-61
2024/04/14 04:39:34;;;;;;;11.47;6.40;;;8.80;93.00;;;;;;5367620;26;20496;-61
2024/04/14 04:41:59;;;;;;;8.43;6.20;;;8.80;92.40;;;;;;5370511;26;20238;-61
2024/04/14 04:44:25;;;;;;;9.53;7.53;;;8.80;92.50;;;;;;5371784;26;20276;-61
2024/04/14 04:46:51;;;;;;;8.27;6.10;;;8.70;92.50;;;;;;5375521;26;20260;-61
2024/04/14 04:49:16;;;;;;;7.97;6.07;;;8.70;92.70;;;;;;5373579;26;20233;-61
2024/04/14 04:51:42;;;;;;;11.50;5.90;;;8.70;93.00;;;;;;5391837;26;20231;-62
2024/04/14 04:54:07;;;;;;;10.43;6.50;;;8.70;93.00;;;;;;5390772;26;20272;-61
2024/04/14 04:56:33;;;;;;;9.73;6.37;;;8.60;93.20;;;;;;5375064;26;20561;-62
2024/04/14 04:58:58;;;;;;;10.43;6.33;;;8.70;93.60;;;;;;5371846;26;20371;-61
2024/04/14 05:01:24;;;;;;;12.10;7.03;;;8.70;93.60;;;;;;5379167;26;20252;-61
2024/04/14 05:03:50;;;;;;;8.90;6.50;;;8.70;94.10;;;;;;5367990;26;20222;-61
2024/04/14 05:06:16;;;;;;;7.60;6.00;;;8.70;95.00;;;;;;5372918;26;20233;-61
2024/04/14 05:08:41;;;;;;;7.97;6.57;;;8.70;96.20;;;;;;5371987;26;20531;-61
2024/04/14 05:11:07;;;;;;;7.80;6.70;;;8.70;97.00;;;;;;5374384;26;20234;-61
2024/04/14 05:13:33;;;;;;;10.03;5.93;;;8.70;96.40;;;;;;5366762;26;20230;-62
2024/04/14 05:15:58;;;;;;;9.30;6.20;;;8.70;96.70;;;;;;5373450;26;20277;-61
2024/04/14 05:18:24;;;;;;;10.60;7.57;;;8.70;97.50;;;;;;5373382;26;20225;-61
2024/04/14 05:20:50;;;;;;;12.20;6.37;;;8.70;98.00;;;;;;5373946;26;20226;-60
2024/04/14 05:23:15;;;;;;;9.47;6.30;;;8.80;97.30;;;;;;5373412;26;20226;-61
2024/04/14 05:25:41;;;;;;;9.13;6.30;;;8.80;97.50;;;;;;5367647;26;22138;-61
2024/04/14 05:28:06;;;;;;;7.53;6.40;;;8.90;97.20;;;;;;5371972;26;20268;-61
2024/04/14 05:30:32;;;;;;;34.27;18.17;;;9.00;97.10;;;;;;5366079;26;20268;-61
2024/04/14 05:32:58;;;;;;;14.50;9.40;;;9.00;95.90;;;;;;5361728;26;20246;-61
2024/04/14 05:35:24;;;;;;;7.47;6.70;;;9.00;95.70;;;;;;5365007;26;20337;-61
2024/04/14 05:37:49;;;;;;;11.73;6.43;;;9.10;95.30;;;;;;5379199;26;20336;-61
2024/04/14 05:40:15;;;;;;;8.90;7.00;;;9.10;94.60;;;;;;5377519;26;21113;-61
2024/04/14 05:42:41;;;;;;;9.70;6.10;;;9.10;93.00;;;;;;5383163;26;20217;-60
2024/04/14 05:45:08;;;;;;;9.67;7.13;;;9.20;92.70;;;;;;5375268;26;20281;-61
2024/04/14 05:47:33;;;;;;;10.93;6.40;;;9.20;93.10;;;;;;5369324;26;20272;-61
2024/04/14 05:49:59;;;;;;;10.07;6.97;;;9.20;93.00;;;;;;5367998;26;20472;-61
2024/04/14 05:52:25;;;;;;;10.77;6.50;;;9.30;92.90;;;;;;5376034;26;20695;-61
2024/04/14 05:54:50;;;;;;;8.43;6.47;;;9.30;93.50;;;;;;5374519;26;20289;-60
2024/04/14 05:57:16;;;;;;;11.50;7.23;;;9.30;93.20;;;;;;5373588;26;20269;-60
2024/04/14 05:59:44;;;;;;;11.53;7.30;;;9.40;93.40;;;;;;5401393;21;20268;31
2024/04/14 06:02:09;;;;;;;8.00;6.67;;;9.50;92.90;;;;;;5367314;26;20241;-62
2024/04/14 06:04:35;;;;;;;9.63;6.60;;;9.60;93.30;;;;;;5370119;26;20524;-63
2024/04/14 06:07:00;;;;;;;11.50;6.40;;;9.70;92.20;;;;;;5373592;26;20284;-61
2024/04/14 06:09:26;;;;;;;6.90;6.20;;;9.80;91.70;;;;;;5379975;26;20279;-61
2024/04/14 06:11:51;;;;;;;14.83;6.73;;;9.90;91.40;;;;;;5372264;26;20238;-61
2024/04/14 06:14:17;;;;;;;7.43;5.63;;;10.00;90.10;;;;;;5367935;26;20342;-61
2024/04/14 06:16:43;;;;;;;8.30;5.77;;;10.10;90.20;;;;;;5372063;26;20269;-61
2024/04/14 06:19:08;;;;;;;5.93;5.17;;;10.10;90.10;;;;;;5365529;26;20230;-61
2024/04/14 06:21:34;;;;;;;8.80;6.20;;;10.20;89.10;;;;;;5371718;26;20672;-60
2024/04/14 06:23:59;;;;;;;13.87;6.07;;;10.30;87.20;;;;;;5361895;26;20347;-61
2024/04/14 06:26:25;;;;;;;8.47;5.70;;;10.30;87.60;;;;;;5371918;26;20291;-61
2024/04/14 06:28:51;;;;;;;11.40;5.53;;;10.40;87.50;;;;;;5364650;26;20280;-61
2024/04/14 06:31:16;;;;;;;8.63;6.50;;;10.40;88.40;;;;;;5373179;26;20343;-61
2024/04/14 06:33:42;;;;;;;10.00;6.23;;;10.50;90.50;;;;;;5368221;26;20226;-63
2024/04/14 06:36:07;;;;;;;9.40;5.70;;;10.50;90.50;;;;;;5360589;26;20256;-61
2024/04/14 06:38:33;;;;;;;9.80;6.00;;;10.60;90.50;;;;;;5367937;26;20268;-62
2024/04/14 06:40:59;;;;;;;11.73;6.30;;;10.70;87.70;;;;;;5364643;26;20324;-62
2024/04/14 06:43:24;;;;;;;7.63;5.87;;;10.80;86.80;;;;;;5362428;26;20229;-61
2024/04/14 06:45:54;;;;;;;12.67;6.60;;;10.90;85.70;;;;;;5368307;26;20229;-61
2024/04/14 06:48:22;;;;;;;10.40;6.60;;;11.00;85.80;;;;;;5368626;26;20744;-62
2024/04/14 06:50:48;;;;;;;9.60;6.17;;;11.10;84.50;;;;;;5372573;26;20515;-62
2024/04/14 06:53:14;;;;;;;8.43;5.70;;;11.10;85.00;;;;;;5366785;26;21140;-62
2024/04/14 06:55:44;;;;;;;6.50;5.40;;;11.20;84.20;;;;;;5369770;26;20479;-62
2024/04/14 06:58:09;;;;;;;7.37;4.70;;;11.30;81.50;;;;;;5359578;26;20664;-61
2024/04/14 07:00:35;;;;;;;7.50;5.37;;;11.30;80.30;;;;;;5373281;26;20473;-62
2024/04/14 07:03:00;;;;;;;6.80;5.73;;;11.40;79.30;;;;;;5367548;26;20312;-62
2024/04/14 07:05:26;;;;;;;7.47;5.53;;;11.60;79.80;;;;;;5371959;26;20716;-58
2024/04/14 07:07:52;;;;;;;9.43;6.07;;;11.70;79.50;;;;;;5367253;26;20282;-60
2024/04/14 07:10:18;;;;;;;6.70;5.97;;;11.80;78.10;;;;;;5364120;26;20372;-60
2024/04/14 07:12:43;;;;;;;9.23;5.67;;;11.80;76.80;;;;;;5365371;26;20226;-60
2024/04/14 07:15:09;;;;;;;19.33;6.27;;;11.90;75.70;;;;;;5370764;26;20456;-60
2024/04/14 07:17:34;;;;;;;7.70;5.93;;;12.00;75.60;;;;;;5370186;26;20342;-61
2024/04/14 07:20:00;;;;;;;6.07;5.43;;;12.10;75.70;;;;;;5370190;26;22288;-65
2024/04/14 07:22:26;;;;;;;7.70;5.50;;;12.30;76.40;;;;;;5365815;26;20230;-62
2024/04/14 07:24:51;;;;;;;8.10;5.90;;;12.30;75.90;;;;;;5360727;26;20304;-60
2024/04/14 07:27:17;;;;;;;9.50;6.10;;;12.50;76.20;;;;;;5361365;26;20339;-63
2024/04/14 07:29:42;;;;;;;13.90;6.90;;;12.60;75.50;;;;;;5363310;26;20235;-63
2024/04/14 07:32:08;;;;;;;8.33;6.80;;;12.70;75.50;;;;;;5360165;26;20716;-63
2024/04/14 07:34:34;;;;;;;10.30;6.77;;;12.80;75.10;;;;;;5360319;26;20231;-62
2024/04/14 07:37:02;;;;;;;8.90;5.63;;;12.90;75.20;;;;;;5363254;26;20226;-63
2024/04/14 07:39:28;;;;;;;7.37;6.00;;;12.90;75.40;;;;;;5356998;26;20239;-62
2024/04/14 07:41:53;;;;;;;8.27;6.40;;;13.00;74.50;;;;;;5355790;26;20472;-62
2024/04/14 07:44:19;;;;;;;10.70;6.50;;;13.10;74.20;;;;;;5362319;26;20272;-63
2024/04/14 07:46:44;;;;;;;7.87;6.70;;;13.20;74.10;;;;;;5363344;26;20234;-63
2024/04/14 07:49:10;;;;;;;13.87;7.37;;;13.30;73.60;;;;;;5357668;26;20268;-63
2024/04/14 07:51:36;;;;;;;6.27;5.63;;;13.40;73.70;;;;;;5354428;26;20296;-63
2024/04/14 07:54:01;;;;;;;6.80;5.80;;;13.50;73.40;;;;;;5356622;26;20260;-61
2024/04/14 07:56:27;;;;;;;8.50;5.80;;;13.70;73.90;;;;;;5359064;26;20284;-63
2024/04/14 07:58:52;;;;;;;9.77;5.93;;;13.80;74.10;;;;;;5367037;26;20233;-63
2024/04/14 08:01:18;;;;;;;13.60;5.93;;;14.00;74.20;;;;;;5357652;26;20237;-63
2024/04/14 08:03:43;;;;;;;6.73;5.43;;;14.10;73.10;;;;;;5363342;26;20330;-63
2024/04/14 08:06:09;;;;;;;6.97;5.50;;;14.20;72.40;;;;;;5364163;26;20267;-63
2024/04/14 08:08:35;;;;;;;16.77;5.87;;;14.40;72.20;;;;;;5369455;26;20233;-64
2024/04/14 08:11:00;;;;;;;9.73;5.47;;;14.60;71.70;;;;;;5359155;26;20233;-62
2024/04/14 08:13:26;;;;;;;7.20;5.80;;;14.70;71.30;;;;;;5370476;26;20271;-63
2024/04/14 08:15:52;;;;;;;11.60;5.47;;;14.90;71.00;;;;;;5368514;26;20662;-64
2024/04/14 08:18:22;;;;;;;7.73;5.50;;;15.10;71.20;;;;;;5364911;26;20327;-63
2024/04/14 08:20:56;;;;;;;6.83;5.20;;;15.20;71.20;;;;;;5371510;26;20272;-64
2024/04/14 08:23:22;;;;;;;6.93;5.00;;;15.40;70.80;;;;;;5369979;26;20455;-64
2024/04/14 08:25:48;;;;;;;9.87;5.07;;;15.70;70.80;;;;;;5361321;26;20530;-61
2024/04/14 08:28:13;;;;;;;7.23;4.73;;;15.90;70.90;;;;;;5372776;26;20281;-63
2024/04/14 08:30:39;;;;;;;9.20;4.77;;;16.10;70.70;;;;;;5379338;26;20647;-63
2024/04/14 08:33:04;;;;;;;6.20;4.53;;;16.40;70.70;;;;;;5375517;26;20628;-64
2024/04/14 08:35:30;;;;;;;8.57;5.03;;;16.60;70.70;;;;;;5368987;26;20245;-65
2024/04/14 08:37:56;;;;;;;6.97;4.30;;;16.70;70.70;;;;;;5367783;26;20748;-64
2024/04/14 08:40:21;;;;;;;5.00;3.83;;;16.90;70.60;;;;;;5366307;26;20246;-63
2024/04/14 08:42:47;;;;;;;3.97;3.30;;;17.10;68.40;;;;;;5363021;26;20234;-63
2024/04/14 08:45:14;;;;;;;4.90;2.73;;;17.30;64.40;;;;;;5366889;26;20850;-65
2024/04/14 08:47:42;;;;;;;3.30;2.20;;;17.50;61.90;;;;;;5373692;26;20274;-64
2024/04/14 08:50:09;;;;;;;6.10;2.83;;;17.70;59.60;;;;;;5370718;26;20960;-63
2024/04/14 08:52:37;;;;;;;4.70;2.70;;;18.00;59.10;;;;;;5371153;26;21077;-66
2024/04/14 08:55:04;;;;;;;4.43;3.20;;;18.20;58.30;;;;;;5369270;26;20618;-65
2024/04/14 08:57:31;;;;;;;3.93;2.60;;;18.50;58.00;;;;;;5366996;26;21223;-63
2024/04/14 08:59:58;;;;;;;5.33;2.63;;;18.70;57.30;;;;;;5365717;26;21164;-63
2024/04/14 09:02:24;;;;;;;4.00;2.33;;;18.90;56.10;;;;;;5365669;26;21081;-65
2024/04/14 09:04:50;;;;;;;4.97;2.40;;;19.10;56.10;;;;;;5364158;26;20460;-66
2024/04/14 09:07:16;;;;;;;7.63;2.93;;;19.40;55.80;;;;;;5360744;26;20310;-66
2024/04/14 09:09:42;;;;;;;5.73;3.10;;;19.60;54.10;;;;;;5364846;26;21046;-62
2024/04/14 09:12:11;;;;;;;4.23;2.70;;;19.80;52.90;;;;;;5370969;26;20222;-63
2024/04/14 09:14:36;;;;;;;4.30;3.27;;;19.90;51.70;;;;;;5365590;26;20518;-65
2024/04/14 09:17:02;;;;;;;7.40;4.57;;;20.00;50.70;;;;;;5359196;26;20479;-64
2024/04/14 09:19:28;;;;;;;2.50;2.30;;;20.20;50.40;;;;;;5372243;26;20277;-62
2024/04/14 09:21:54;;;;;;;3.33;2.53;;;20.30;50.00;;;;;;5366133;26;20280;-64
2024/04/14 09:24:20;;;;;;;6.63;3.00;;;20.40;49.30;;;;;;5365264;26;20468;-63
2024/04/14 09:26:45;;;;;;;4.77;2.50;;;20.60;49.10;;;;;;5364184;26;20273;-63
2024/04/14 09:29:11;;;;;;;2.57;2.13;;;20.70;48.60;;;;;;5363713;26;20237;-56
2024/04/14 09:31:36;;;;;;;3.07;2.40;;;20.90;48.40;;;;;;5369928;26;20318;-63
2024/04/14 09:34:06;;;;;;;3.60;2.90;;;20.90;48.40;;;;;;5365921;26;20233;-65
2024/04/14 09:36:32;;;;;;;2.67;2.40;;;21.00;47.90;;;;;;5368934;26;20299;-63
2024/04/14 09:39:01;;;;;;;2.60;2.40;;;21.00;48.70;;;;;;5360479;26;20476;-64
2024/04/14 09:41:27;;;;;;;5.60;3.23;;;21.10;47.90;;;;;;5371025;26;20230;-63
2024/04/14 09:43:55;;;;;;;4.07;1.93;;;21.20;47.70;;;;;;5370227;26;20464;-63
2024/04/14 09:46:21;;;;;;;2.87;2.47;;;21.30;47.60;;;;;;5370518;26;20225;-63
2024/04/14 09:48:49;;;;;;;8.53;2.70;;;21.40;48.10;;;;;;5365072;26;20580;-63
2024/04/14 09:51:15;;;;;;;3.23;2.50;;;21.60;47.60;;;;;;5373852;26;20272;-64
2024/04/14 09:53:44;;;;;;;7.33;2.47;;;21.90;46.60;;;;;;5374245;26;20460;-63
2024/04/14 09:56:09;;;;;;;3.30;2.67;;;22.00;45.20;;;;;;5365265;26;20503;-63
2024/04/14 09:58:35;;;;;;;3.63;2.73;;;22.10;46.10;;;;;;5373018;26;20827;-63
2024/04/14 10:01:06;;;;;;;4.33;2.60;;;22.20;46.20;;;;;;5371029;26;20246;-63
2024/04/14 10:03:34;;;;;;;4.57;2.50;;;22.20;45.20;;;;;;5374615;26;20272;-64
2024/04/14 10:06:01;;;;;;;6.53;2.77;;;22.20;45.60;;;;;;5373616;26;20822;-64
2024/04/14 10:08:33;;;;;;;5.80;2.57;;;22.30;45.60;;;;;;5360837;26;21023;-65
2024/04/14 10:11:01;;;;;;;3.43;2.30;;;22.40;44.60;;;;;;5370872;26;20456;-63
2024/04/14 10:13:27;;;;;;;4.10;2.50;;;22.40;44.70;;;;;;5371253;26;20595;-63
2024/04/14 10:15:57;;;;;;;5.13;2.47;;;22.50;45.70;;;;;;5374605;26;20448;-63
2024/04/14 10:18:24;;;;;;;6.00;2.63;;;22.60;44.30;;;;;;5356699;26;20226;-63
2024/04/14 10:20:50;;;;;;;3.60;2.30;;;22.70;44.80;;;;;;5371665;26;20472;-63
2024/04/14 10:23:20;;;;;;;3.60;2.80;;;22.70;44.60;;;;;;5372462;26;20452;-63
2024/04/14 10:25:47;;;;;;;6.47;3.37;;;22.80;47.00;;;;;;5371946;26;20238;-64
2024/04/14 10:28:20;;;;;;;4.20;2.60;;;23.00;45.70;;;;;;5373104;26;20924;-63
2024/04/14 10:30:48;;;;;;;6.77;2.50;;;23.20;44.70;;;;;;5368739;26;20463;-64
2024/04/14 10:33:21;;;;;;;4.43;2.80;;;23.30;43.40;;;;;;5373403;26;20579;-64
2024/04/14 10:35:47;;;;;;;4.50;2.40;;;23.40;41.80;;;;;;5373842;26;20834;-63
2024/04/14 10:38:20;;;;;;;2.97;2.60;;;23.50;39.20;;;;;;5363203;26;20456;-64
2024/04/14 10:40:46;;;;;;;4.40;2.80;;;23.50;39.90;;;;;;5372317;26;20237;-65
2024/04/14 10:43:16;;;;;;;2.77;2.27;;;23.50;39.30;;;;;;5360026;26;20453;-66
2024/04/14 10:45:42;;;;;;;2.93;2.30;;;23.70;39.10;;;;;;5396136;26;20586;-64
2024/04/14 10:48:07;;;;;;;3.60;2.40;;;23.80;38.70;;;;;;5367693;26;20955;-64
2024/04/14 10:50:33;;;;;;;3.53;3.00;;;23.90;38.20;;;;;;5373677;26;20283;-64
2024/04/14 10:52:59;;;;;;;3.10;2.30;;;24.00;38.90;;;;;;5372866;26;20233;-63
2024/04/14 10:55:25;;;;;;;3.77;2.60;;;24.10;37.30;;;;;;5360462;26;20980;-64
2024/04/14 10:57:50;;;;;;;4.23;2.57;;;24.20;35.20;;;;;;5370174;26;20222;-60
2024/04/14 11:00:16;;;;;;;4.97;3.07;;;24.20;36.30;;;;;;5373301;26;20508;-59
2024/04/14 11:02:44;;;;;;;7.50;3.57;;;24.20;37.10;;;;;;5364739;26;20608;-61
2024/04/14 11:05:10;;;;;;;3.50;2.80;;;24.20;37.50;;;;;;5367188;26;20267;-60
2024/04/14 11:07:36;;;;;;;2.97;2.67;;;24.30;37.70;;;;;;5370763;26;20463;-63
2024/04/14 11:10:03;;;;;;;5.53;2.63;;;24.30;36.80;;;;;;5358178;26;20452;-60
2024/04/14 11:12:29;;;;;;;3.27;2.97;;;24.40;37.30;;;;;;5368290;26;20456;-61
2024/04/14 11:14:55;;;;;;;3.90;2.63;;;24.50;35.00;;;;;;5368970;26;20511;-61
2024/04/14 11:17:22;;;;;;;4.80;3.10;;;24.60;35.70;;;;;;5364289;26;20297;-60
2024/04/14 11:19:47;;;;;;;4.00;2.70;;;24.60;36.60;;;;;;5369689;26;20297;-61
2024/04/14 11:22:20;;;;;;;3.77;2.13;;;24.70;35.60;;;;;;5366566;26;20459;-61
2024/04/14 11:24:51;;;;;;;4.07;2.47;;;24.80;36.60;;;;;;5368943;26;20298;-60
2024/04/14 11:27:17;;;;;;;9.27;3.70;;;24.70;37.80;;;;;;5370854;26;20511;-61
2024/04/14 11:29:43;;;;;;;3.20;2.90;;;24.80;37.80;;;;;;5368997;26;20937;-60
2024/04/14 11:32:28;;;;;;;7.07;2.90;;;24.80;37.00;;;;;;5367442;26;20217;-61
2024/04/14 11:34:57;;;;;;;5.87;3.67;;;24.90;37.50;;;;;;5370484;26;20826;-61
2024/04/14 11:37:22;;;;;;;9.30;3.50;;;25.10;36.70;;;;;;5365105;26;20811;-61
2024/04/14 11:39:50;;;;;;;2.50;2.30;;;25.30;37.70;;;;;;5363859;26;20448;-60
2024/04/14 11:42:19;;;;;;;5.03;2.73;;;25.40;37.00;;;;;;5356677;26;20783;-61
2024/04/14 11:44:44;;;;;;;5.00;2.90;;;25.60;35.50;;;;;;5367616;26;20451;-60
2024/04/14 11:47:10;;;;;;;4.93;2.67;;;25.60;35.80;;;;;;5363824;26;20503;-60
2024/04/14 11:49:35;;;;;;;3.73;2.70;;;25.60;36.70;;;;;;5366563;26;20360;-60
2024/04/14 11:52:01;;;;;;;2.77;2.57;;;25.60;37.50;;;;;;5394142;26;20382;-60
2024/04/14 11:54:26;;;;;;;5.20;3.53;;;25.70;38.20;;;;;;5366815;26;20233;-60
2024/04/14 11:56:52;;;;;;;3.00;2.80;;;25.80;37.60;;;;;;5363376;26;20233;-61
2024/04/14 11:59:19;;;;;;;4.40;2.60;;;25.90;38.00;;;;;;5360191;26;20250;-60
2024/04/14 12:01:46;;;;;;;4.20;2.70;;;26.10;38.20;;;;;;5361955;26;20710;-61
2024/04/14 12:04:11;;;;;;;5.73;2.77;;;26.30;37.20;;;;;;5366809;26;20264;-61
2024/04/14 12:06:37;;;;;;;3.97;2.80;;;26.50;37.50;;;;;;5366491;26;20237;-61
2024/04/14 12:09:03;;;;;;;3.13;2.60;;;26.60;37.80;;;;;;5364639;26;20351;-61
2024/04/14 12:11:29;;;;;;;4.43;2.80;;;26.70;35.90;;;;;;5369218;26;20241;-61
2024/04/14 12:13:55;;;;;;;4.27;2.70;;;26.80;37.70;;;;;;5367693;26;20335;-62
2024/04/14 12:16:20;;;;;;;3.57;2.40;;;26.80;39.20;;;;;;5366230;26;21015;-61
2024/04/14 12:18:46;;;;;;;4.90;3.77;;;26.90;38.10;;;;;;5365554;26;20221;-61
2024/04/14 12:21:11;;;;;;;6.20;2.47;;;27.10;37.20;;;;;;5363460;26;20778;-61
2024/04/14 12:23:37;;;;;;;2.40;2.20;;;27.10;35.20;;;;;;5367316;26;20229;-61
2024/04/14 12:26:03;;;;;;;3.10;2.40;;;27.10;33.60;;;;;;5366119;26;20781;-61
2024/04/14 12:28:28;;;;;;;10.20;3.00;;;27.10;33.50;;;;;;5367496;26;20229;-61
2024/04/14 12:30:54;;;;;;;3.70;2.73;;;27.20;34.40;;;;;;5369605;26;20233;-61
2024/04/14 12:33:19;;;;;;;5.23;2.87;;;27.20;34.10;;;;;;5370139;26;20895;-61
2024/04/14 12:35:45;;;;;;;3.00;2.47;;;27.20;35.60;;;;;;5363826;26;20732;-60
2024/04/14 12:38:10;;;;;;;5.17;2.57;;;27.20;36.30;;;;;;5366250;26;20213;-60
2024/04/14 12:40:37;;;;;;;4.10;2.30;;;27.30;36.30;;;;;;5368466;26;20276;-61
2024/04/14 12:43:02;;;;;;;3.37;2.43;;;27.40;34.60;;;;;;5361891;26;20264;-60